createdAt,value
2019-04-27T00:00:00.098Z,0.00
2019-04-27T00:00:57.057Z,0.00
2019-04-27T00:01:57.095Z,0.00
2019-04-27T00:03:02.191Z,0.00
2019-04-27T00:03:58.037Z,0.00
2019-04-27T00:04:57.008Z,0.00
2019-04-27T00:05:57.024Z,0.00
2019-04-27T00:06:56.974Z,0.00
2019-04-27T00:07:59.308Z,0.00
2019-04-27T00:08:56.941Z,0.00
2019-04-27T00:09:56.974Z,0.00
2019-04-27T00:10:59.758Z,0.00
2019-04-27T00:11:57.917Z,0.00
2019-04-27T00:12:57.259Z,0.00
2019-04-27T00:13:56.940Z,0.00
2019-04-27T00:14:56.898Z,0.00
2019-04-27T00:15:56.893Z,0.00
2019-04-27T00:16:56.858Z,0.00
2019-04-27T00:17:58.472Z,0.00
2019-04-27T00:18:58.083Z,0.00
2019-04-27T00:19:56.818Z,0.00
2019-04-27T00:20:56.818Z,0.00
2019-04-27T00:21:56.841Z,0.00
2019-04-27T00:22:56.831Z,0.00
2019-04-27T00:23:56.915Z,0.00
2019-04-27T00:24:56.804Z,0.00
2019-04-27T00:25:56.817Z,0.00
2019-04-27T00:26:56.785Z,0.00
2019-04-27T00:27:56.767Z,0.00
2019-04-27T00:28:56.735Z,0.00
2019-04-27T00:29:56.825Z,0.00
2019-04-27T00:30:56.706Z,0.00
2019-04-27T00:31:56.694Z,0.00
2019-04-27T00:32:56.686Z,0.00
2019-04-27T00:33:56.665Z,0.00
2019-04-27T00:34:56.686Z,0.00
2019-04-27T00:35:56.645Z,0.00
2019-04-27T00:36:56.635Z,0.00
2019-04-27T00:37:56.667Z,0.00
2019-04-27T00:38:56.617Z,0.00
2019-04-27T00:39:56.604Z,0.00
2019-04-27T00:40:56.608Z,0.00
2019-04-27T00:41:56.583Z,0.00
2019-04-27T00:42:56.624Z,0.00
2019-04-27T00:43:56.582Z,0.00
2019-04-27T00:44:56.573Z,0.00
2019-04-27T00:45:56.544Z,0.00
2019-04-27T00:46:56.538Z,0.00
2019-04-27T00:47:59.672Z,0.00
2019-04-27T00:48:56.505Z,0.00
2019-04-27T00:49:56.496Z,0.00
2019-04-27T00:50:56.497Z,0.00
2019-04-27T00:51:56.512Z,0.00
2019-04-27T00:52:56.518Z,0.00
2019-04-27T00:53:56.456Z,0.00
2019-04-27T00:54:56.457Z,0.00
2019-04-27T00:55:56.437Z,0.00
2019-04-27T00:56:56.427Z,0.00
2019-04-27T00:57:58.832Z,0.00
2019-04-27T00:58:56.398Z,0.00
2019-04-27T00:59:56.434Z,0.00
2019-04-27T01:00:56.424Z,0.00
2019-04-27T01:01:56.367Z,0.00
2019-04-27T01:02:56.356Z,0.00
2019-04-27T01:03:56.357Z,0.00
2019-04-27T01:04:56.403Z,0.00
2019-04-27T01:05:56.338Z,0.00
2019-04-27T01:06:56.349Z,0.00
2019-04-27T01:07:56.312Z,0.00
2019-04-27T01:08:56.288Z,0.00
2019-04-27T01:09:56.309Z,0.00
2019-04-27T01:10:56.337Z,0.00
2019-04-27T01:11:56.257Z,0.00
2019-04-27T01:12:56.265Z,0.00
2019-04-27T01:13:56.251Z,0.00
2019-04-27T01:14:56.394Z,0.00
2019-04-27T01:15:56.258Z,0.00
2019-04-27T01:16:56.207Z,0.00
2019-04-27T01:18:11.093Z,0.00
2019-04-27T01:18:58.842Z,0.00
2019-04-27T01:19:56.183Z,0.00
2019-04-27T01:20:56.177Z,0.00
2019-04-27T01:21:56.187Z,0.00
2019-04-27T01:22:56.230Z,0.00
2019-04-27T01:23:56.141Z,0.00
2019-04-27T01:24:56.118Z,0.00
2019-04-27T01:25:56.110Z,0.00
2019-04-27T01:26:56.139Z,0.00
2019-04-27T01:27:56.116Z,0.00
2019-04-27T01:28:56.077Z,0.00
2019-04-27T01:29:56.060Z,0.00
2019-04-27T01:30:56.060Z,0.00
2019-04-27T01:31:56.038Z,0.00
2019-04-27T01:32:56.076Z,0.00
2019-04-27T01:33:56.017Z,0.00
2019-04-27T01:34:56.010Z,0.00
2019-04-27T01:35:55.997Z,0.00
2019-04-27T01:36:56.044Z,0.00
2019-04-27T01:37:55.996Z,0.00
2019-04-27T01:38:55.972Z,0.00
2019-04-27T01:39:55.958Z,0.00
2019-04-27T01:40:55.990Z,0.00
2019-04-27T01:41:55.929Z,0.00
2019-04-27T01:42:55.926Z,0.00
2019-04-27T01:43:55.944Z,0.00
2019-04-27T01:44:55.904Z,0.00
2019-04-27T01:45:55.926Z,0.00
2019-04-27T01:46:55.880Z,0.00
2019-04-27T01:47:55.877Z,0.00
2019-04-27T01:48:55.888Z,0.00
2019-04-27T01:49:55.868Z,0.00
2019-04-27T01:50:55.856Z,0.00
2019-04-27T01:51:55.844Z,0.00
2019-04-27T01:52:55.844Z,0.00
2019-04-27T01:53:55.815Z,0.00
2019-04-27T01:54:55.850Z,0.00
2019-04-27T01:55:55.802Z,0.00
2019-04-27T01:56:55.771Z,0.00
2019-04-27T01:57:55.755Z,0.00
2019-04-27T01:58:55.758Z,0.00
2019-04-27T01:59:55.759Z,0.00
2019-04-27T02:00:55.727Z,0.00
2019-04-27T02:01:55.735Z,0.00
2019-04-27T02:02:55.714Z,0.00
2019-04-27T02:03:55.727Z,0.00
2019-04-27T02:04:55.696Z,0.00
2019-04-27T02:05:55.678Z,0.00
2019-04-27T02:06:55.675Z,0.00
2019-04-27T02:07:55.649Z,0.00
2019-04-27T02:08:55.699Z,0.00
2019-04-27T02:09:55.628Z,0.00
2019-04-27T02:10:55.616Z,0.00
2019-04-27T02:11:55.607Z,0.00
2019-04-27T02:12:55.588Z,0.00
2019-04-27T02:13:55.621Z,0.00
2019-04-27T02:14:55.610Z,0.00
2019-04-27T02:15:55.557Z,0.00
2019-04-27T02:16:55.558Z,0.00
2019-04-27T02:17:55.538Z,0.00
2019-04-27T02:18:55.527Z,0.00
2019-04-27T02:19:55.556Z,0.00
2019-04-27T02:20:55.515Z,0.00
2019-04-27T02:21:55.505Z,0.00
2019-04-27T02:22:55.484Z,0.00
2019-04-27T02:23:55.486Z,0.00
2019-04-27T02:24:55.495Z,0.00
2019-04-27T02:25:55.495Z,0.00
2019-04-27T02:26:55.462Z,0.00
2019-04-27T02:27:55.437Z,0.00
2019-04-27T02:28:55.435Z,0.00
2019-04-27T02:29:55.444Z,0.00
2019-04-27T02:30:55.399Z,0.00
2019-04-27T02:31:55.453Z,0.00
2019-04-27T02:32:55.387Z,0.00
2019-04-27T02:33:55.403Z,0.00
2019-04-27T02:34:55.371Z,0.00
2019-04-27T02:35:55.349Z,0.00
2019-04-27T02:36:55.377Z,0.00
2019-04-27T02:37:55.326Z,0.00
2019-04-27T02:38:55.307Z,0.00
2019-04-27T02:39:55.325Z,0.00
2019-04-27T02:40:55.376Z,0.00
2019-04-27T02:41:55.277Z,0.00
2019-04-27T02:42:55.280Z,0.00
2019-04-27T02:43:55.312Z,0.00
2019-04-27T02:44:55.245Z,0.00
2019-04-27T02:45:55.246Z,0.00
2019-04-27T02:46:55.240Z,0.00
2019-04-27T02:47:55.208Z,0.00
2019-04-27T02:49:00.015Z,0.00
2019-04-27T02:49:56.206Z,0.00
2019-04-27T02:50:55.234Z,0.00
2019-04-27T02:51:55.169Z,0.00
2019-04-27T02:52:55.165Z,0.00
2019-04-27T02:53:55.194Z,0.00
2019-04-27T02:54:55.176Z,0.00
2019-04-27T02:55:55.135Z,0.00
2019-04-27T02:56:55.113Z,0.00
2019-04-27T02:57:55.108Z,0.00
2019-04-27T02:58:55.102Z,0.00
2019-04-27T02:59:55.114Z,0.00
2019-04-27T03:00:55.064Z,0.00
2019-04-27T03:01:55.057Z,0.00
2019-04-27T03:02:55.047Z,0.00
2019-04-27T03:03:55.043Z,0.00
2019-04-27T03:04:55.066Z,0.00
2019-04-27T03:05:55.065Z,0.00
2019-04-27T03:06:55.007Z,0.00
2019-04-27T03:07:54.996Z,0.00
2019-04-27T03:08:54.985Z,0.00
2019-04-27T03:09:54.969Z,0.00
2019-04-27T03:10:55.003Z,0.00
2019-04-27T03:11:54.947Z,0.00
2019-04-27T03:12:54.935Z,0.00
2019-04-27T03:13:54.926Z,0.00
2019-04-27T03:14:54.914Z,0.00
2019-04-27T03:15:54.954Z,0.00
2019-04-27T03:16:54.925Z,0.00
2019-04-27T03:17:54.889Z,0.00
2019-04-27T03:19:10.364Z,0.00
2019-04-27T03:19:55.866Z,0.00
2019-04-27T03:20:54.887Z,0.00
2019-04-27T03:21:54.846Z,0.00
2019-04-27T03:22:54.826Z,0.00
2019-04-27T03:23:54.813Z,0.00
2019-04-27T03:24:54.840Z,0.00
2019-04-27T03:25:54.793Z,0.00
2019-04-27T03:26:54.784Z,0.00
2019-04-27T03:27:54.814Z,0.00
2019-04-27T03:28:54.785Z,0.00
2019-04-27T03:29:54.757Z,0.00
2019-04-27T03:30:54.746Z,0.00
2019-04-27T03:31:54.780Z,0.00
2019-04-27T03:32:56.476Z,0.00
2019-04-27T03:33:58.916Z,0.00
2019-04-27T03:34:55.699Z,0.00
2019-04-27T03:35:54.684Z,0.00
2019-04-27T03:36:54.709Z,0.00
2019-04-27T03:37:54.693Z,0.00
2019-04-27T03:38:54.651Z,0.00
2019-04-27T03:39:54.642Z,0.00
2019-04-27T03:40:54.631Z,0.00
2019-04-27T03:41:54.622Z,0.00
2019-04-27T03:42:54.650Z,0.00
2019-04-27T03:43:54.621Z,0.00
2019-04-27T03:44:54.603Z,0.00
2019-04-27T03:45:54.583Z,0.00
2019-04-27T03:46:54.563Z,0.00
2019-04-27T03:47:54.581Z,0.00
2019-04-27T03:48:54.543Z,0.00
2019-04-27T03:49:54.541Z,0.00
2019-04-27T03:50:54.532Z,0.00
2019-04-27T03:51:54.563Z,0.00
2019-04-27T03:52:54.523Z,0.00
2019-04-27T03:53:57.206Z,0.00
2019-04-27T03:54:54.506Z,0.00
2019-04-27T03:55:54.472Z,0.00
2019-04-27T03:56:54.463Z,0.00
2019-04-27T03:57:54.441Z,0.00
2019-04-27T03:58:54.473Z,0.00
2019-04-27T03:59:54.426Z,0.00
2019-04-27T04:00:54.419Z,0.00
2019-04-27T04:01:54.412Z,0.00
2019-04-27T04:02:54.392Z,0.00
2019-04-27T04:03:54.413Z,0.00
2019-04-27T04:04:54.367Z,0.00
2019-04-27T04:05:54.353Z,0.00
2019-04-27T04:06:54.347Z,0.00
2019-04-27T04:07:54.406Z,0.00
2019-04-27T04:08:55.241Z,0.00
2019-04-27T04:09:54.321Z,0.00
2019-04-27T04:10:54.321Z,0.00
2019-04-27T04:11:54.298Z,0.00
2019-04-27T04:12:56.240Z,0.00
2019-04-27T04:13:54.342Z,0.00
2019-04-27T04:14:54.261Z,0.00
2019-04-27T04:15:54.252Z,0.00
2019-04-27T04:16:54.238Z,0.00
2019-04-27T04:17:54.230Z,0.00
2019-04-27T04:18:54.255Z,0.00
2019-04-27T04:19:58.031Z,0.00
2019-04-27T04:20:55.189Z,0.00
2019-04-27T04:21:54.192Z,0.00
2019-04-27T04:22:54.169Z,0.00
2019-04-27T04:23:54.223Z,0.00
2019-04-27T04:24:54.163Z,0.00
2019-04-27T04:25:54.141Z,0.00
2019-04-27T04:26:54.131Z,0.00
2019-04-27T04:27:54.120Z,0.00
2019-04-27T04:28:54.140Z,0.00
2019-04-27T04:29:54.090Z,0.00
2019-04-27T04:30:54.080Z,0.00
2019-04-27T04:31:54.076Z,5.62
2019-04-27T04:32:54.090Z,5.62
2019-04-27T04:33:54.095Z,5.62
2019-04-27T04:34:54.088Z,5.62
2019-04-27T04:35:54.025Z,5.62
2019-04-27T04:36:54.018Z,5.62
2019-04-27T04:37:54.008Z,5.62
2019-04-27T04:38:53.993Z,5.62
2019-04-27T04:39:54.020Z,5.62
2019-04-27T04:40:53.976Z,5.62
2019-04-27T04:41:53.958Z,5.62
2019-04-27T04:42:53.962Z,5.62
2019-04-27T04:43:53.959Z,11.25
2019-04-27T04:44:53.970Z,11.25
2019-04-27T04:45:53.929Z,11.25
2019-04-27T04:46:53.910Z,11.25
2019-04-27T04:47:53.898Z,11.25
2019-04-27T04:48:53.894Z,11.25
2019-04-27T04:50:07.399Z,16.88
2019-04-27T04:50:54.872Z,16.88
2019-04-27T04:51:53.902Z,16.88
2019-04-27T04:52:53.841Z,16.88
2019-04-27T04:53:53.871Z,22.50
2019-04-27T04:54:53.847Z,22.50
2019-04-27T04:55:53.822Z,22.50
2019-04-27T04:56:53.844Z,22.50
2019-04-27T04:57:53.788Z,16.88
2019-04-27T04:58:53.772Z,16.88
2019-04-27T04:59:53.769Z,16.88
2019-04-27T05:00:53.806Z,16.88
2019-04-27T05:01:53.738Z,16.88
2019-04-27T05:02:53.737Z,16.88
2019-04-27T05:03:53.720Z,16.88
2019-04-27T05:04:53.720Z,11.25
2019-04-27T05:05:53.765Z,11.25
2019-04-27T05:06:53.684Z,11.25
2019-04-27T05:07:53.675Z,11.25
2019-04-27T05:08:53.666Z,11.25
2019-04-27T05:09:53.648Z,11.25
2019-04-27T05:10:53.667Z,11.25
2019-04-27T05:11:53.689Z,11.25
2019-04-27T05:12:53.626Z,11.25
2019-04-27T05:13:53.612Z,11.25
2019-04-27T05:14:53.607Z,11.25
2019-04-27T05:15:53.599Z,11.25
2019-04-27T05:16:53.617Z,11.25
2019-04-27T05:17:53.587Z,11.25
2019-04-27T05:18:53.579Z,11.25
2019-04-27T05:19:53.548Z,11.25
2019-04-27T05:20:53.548Z,11.25
2019-04-27T05:21:53.574Z,11.25
2019-04-27T05:22:53.516Z,11.25
2019-04-27T05:23:53.497Z,16.88
2019-04-27T05:24:53.524Z,22.50
2019-04-27T05:25:53.502Z,22.50
2019-04-27T05:26:53.508Z,28.12
2019-04-27T05:27:53.455Z,33.75
2019-04-27T05:28:53.468Z,39.38
2019-04-27T05:29:53.436Z,45.00
2019-04-27T05:30:53.449Z,50.62
2019-04-27T05:31:53.467Z,50.62
2019-04-27T05:32:53.422Z,50.62
2019-04-27T05:33:53.415Z,45.00
2019-04-27T05:34:53.406Z,50.62
2019-04-27T05:35:53.382Z,56.25
2019-04-27T05:36:53.388Z,67.50
2019-04-27T05:37:53.346Z,73.12
2019-04-27T05:38:53.365Z,78.75
2019-04-27T05:39:53.331Z,84.38
2019-04-27T05:40:53.388Z,90.00
2019-04-27T05:41:53.306Z,95.62
2019-04-27T05:42:55.371Z,101.25
2019-04-27T05:43:53.275Z,106.88
2019-04-27T05:44:53.285Z,106.88
2019-04-27T05:45:57.073Z,106.88
2019-04-27T05:46:54.290Z,106.88
2019-04-27T05:47:53.237Z,101.25
2019-04-27T05:48:53.227Z,101.25
2019-04-27T05:49:53.220Z,101.25
2019-04-27T05:50:58.755Z,101.25
2019-04-27T05:51:54.324Z,112.50
2019-04-27T05:52:53.193Z,123.75
2019-04-27T05:53:53.166Z,129.38
2019-04-27T05:54:53.167Z,129.38
2019-04-27T05:55:53.145Z,129.38
2019-04-27T05:56:53.144Z,129.38
2019-04-27T05:57:53.154Z,129.38
2019-04-27T05:58:53.120Z,129.38
2019-04-27T05:59:53.114Z,123.75
2019-04-27T06:00:53.108Z,118.12
2019-04-27T06:01:53.126Z,112.50
2019-04-27T06:02:53.094Z,95.62
2019-04-27T06:03:53.067Z,78.75
2019-04-27T06:04:53.045Z,61.88
2019-04-27T06:05:53.045Z,45.00
2019-04-27T06:06:53.067Z,33.75
2019-04-27T06:07:53.015Z,22.50
2019-04-27T06:08:53.044Z,16.88
2019-04-27T06:09:52.994Z,11.25
2019-04-27T06:10:53.014Z,11.25
2019-04-27T06:11:52.975Z,11.25
2019-04-27T06:12:52.967Z,11.25
2019-04-27T06:13:52.994Z,11.25
2019-04-27T06:14:52.939Z,16.88
2019-04-27T06:15:52.924Z,16.88
2019-04-27T06:16:52.915Z,22.50
2019-04-27T06:17:52.924Z,22.50
2019-04-27T06:18:52.933Z,22.50
2019-04-27T06:19:52.901Z,22.50
2019-04-27T06:20:55.717Z,16.88
2019-04-27T06:21:52.865Z,16.88
2019-04-27T06:22:52.853Z,16.88
2019-04-27T06:23:52.841Z,16.88
2019-04-27T06:24:54.634Z,16.88
2019-04-27T06:25:52.853Z,16.88
2019-04-27T06:26:52.805Z,16.88
2019-04-27T06:27:52.793Z,11.25
2019-04-27T06:28:52.783Z,16.88
2019-04-27T06:29:52.815Z,16.88
2019-04-27T06:30:52.765Z,22.50
2019-04-27T06:31:52.752Z,22.50
2019-04-27T06:32:52.743Z,28.12
2019-04-27T06:33:52.734Z,39.38
2019-04-27T06:34:52.826Z,50.62
2019-04-27T06:35:52.731Z,56.25
2019-04-27T06:36:52.724Z,56.25
2019-04-27T06:37:52.690Z,50.62
2019-04-27T06:38:52.683Z,56.25
2019-04-27T06:39:52.703Z,61.88
2019-04-27T06:40:52.655Z,78.75
2019-04-27T06:41:52.642Z,95.62
2019-04-27T06:42:52.637Z,101.25
2019-04-27T06:43:52.641Z,112.50
2019-04-27T06:44:52.642Z,118.12
2019-04-27T06:45:52.604Z,135.00
2019-04-27T06:46:52.589Z,168.75
2019-04-27T06:47:52.632Z,185.62
2019-04-27T06:48:52.592Z,213.75
2019-04-27T06:49:52.582Z,208.12
2019-04-27T06:51:02.588Z,247.50
2019-04-27T06:51:53.539Z,236.25
2019-04-27T06:52:52.596Z,292.50
2019-04-27T06:53:52.571Z,315.00
2019-04-27T06:54:52.532Z,337.50
2019-04-27T06:55:52.491Z,331.88
2019-04-27T06:56:52.489Z,320.62
2019-04-27T06:57:52.532Z,292.50
2019-04-27T06:58:52.464Z,270.00
2019-04-27T06:59:52.451Z,253.12
2019-04-27T07:00:52.441Z,241.88
2019-04-27T07:01:52.464Z,230.62
2019-04-27T07:02:55.166Z,219.38
2019-04-27T07:03:52.422Z,202.50
2019-04-27T07:04:52.417Z,196.88
2019-04-27T07:05:52.381Z,191.25
2019-04-27T07:06:55.889Z,180.00
2019-04-27T07:07:52.359Z,168.75
2019-04-27T07:08:55.140Z,157.50
2019-04-27T07:09:52.373Z,151.88
2019-04-27T07:10:52.333Z,146.25
2019-04-27T07:11:52.365Z,140.62
2019-04-27T07:12:52.308Z,135.00
2019-04-27T07:13:52.305Z,135.00
2019-04-27T07:14:55.066Z,129.38
2019-04-27T07:15:52.301Z,129.38
2019-04-27T07:16:52.266Z,129.38
2019-04-27T07:17:52.251Z,135.00
2019-04-27T07:18:52.241Z,135.00
2019-04-27T07:19:52.232Z,140.62
2019-04-27T07:20:52.257Z,140.62
2019-04-27T07:21:52.222Z,146.25
2019-04-27T07:22:52.202Z,146.25
2019-04-27T07:23:52.180Z,151.88
2019-04-27T07:24:52.250Z,157.50
2019-04-27T07:25:52.160Z,163.12
2019-04-27T07:26:52.211Z,174.38
2019-04-27T07:27:52.141Z,180.00
2019-04-27T07:28:52.131Z,191.25
2019-04-27T07:29:53.691Z,202.50
2019-04-27T07:30:52.121Z,208.12
2019-04-27T07:31:52.130Z,219.38
2019-04-27T07:32:52.861Z,230.62
2019-04-27T07:33:52.119Z,241.88
2019-04-27T07:34:52.112Z,247.50
2019-04-27T07:35:52.069Z,247.50
2019-04-27T07:36:52.108Z,247.50
2019-04-27T07:37:52.038Z,258.75
2019-04-27T07:38:52.403Z,275.62
2019-04-27T07:39:52.011Z,292.50
2019-04-27T07:40:52.012Z,326.25
2019-04-27T07:41:52.035Z,365.62
2019-04-27T07:42:51.999Z,455.62
2019-04-27T07:43:51.960Z,511.88
2019-04-27T07:44:51.970Z,534.38
2019-04-27T07:45:52.006Z,517.50
2019-04-27T07:46:51.967Z,703.12
2019-04-27T07:47:51.931Z,798.75
2019-04-27T07:48:51.914Z,720.00
2019-04-27T07:49:51.899Z,736.88
2019-04-27T07:50:51.890Z,1119.38
2019-04-27T07:51:51.912Z,1141.88
2019-04-27T07:52:51.869Z,1220.62
2019-04-27T07:53:51.905Z,1333.12
2019-04-27T07:54:51.853Z,1226.25
2019-04-27T07:55:51.857Z,916.88
2019-04-27T07:56:51.880Z,748.12
2019-04-27T07:57:51.823Z,742.50
2019-04-27T07:58:51.840Z,770.62
2019-04-27T07:59:51.820Z,871.88
2019-04-27T08:00:51.825Z,1012.50
2019-04-27T08:01:51.831Z,1276.88
2019-04-27T08:02:51.793Z,1755.00
2019-04-27T08:03:51.752Z,1614.38
2019-04-27T08:04:51.781Z,540.00
2019-04-27T08:05:51.743Z,995.62
2019-04-27T08:06:51.774Z,466.88
2019-04-27T08:07:51.712Z,939.38
2019-04-27T08:08:51.695Z,1029.38
2019-04-27T08:09:51.683Z,956.25
2019-04-27T08:10:51.679Z,877.50
2019-04-27T08:11:51.701Z,843.75
2019-04-27T08:12:51.690Z,832.50
2019-04-27T08:13:51.640Z,871.88
2019-04-27T08:14:51.628Z,928.12
2019-04-27T08:15:51.635Z,990.00
2019-04-27T08:16:51.611Z,1051.88
2019-04-27T08:17:51.657Z,1023.75
2019-04-27T08:18:51.759Z,990.00
2019-04-27T08:19:51.575Z,1006.88
2019-04-27T08:20:51.564Z,1085.62
2019-04-27T08:21:51.555Z,1670.62
2019-04-27T08:22:51.595Z,1828.12
2019-04-27T08:23:51.555Z,1760.62
2019-04-27T08:24:51.510Z,1479.38
2019-04-27T08:25:51.521Z,2053.12
2019-04-27T08:26:51.493Z,1771.88
2019-04-27T08:27:51.519Z,1136.25
2019-04-27T08:28:51.483Z,1305.00
2019-04-27T08:29:51.465Z,1395.00
2019-04-27T08:30:51.452Z,1023.75
2019-04-27T08:31:51.446Z,483.75
2019-04-27T08:32:51.471Z,320.62
2019-04-27T08:33:51.416Z,466.88
2019-04-27T08:34:51.402Z,714.38
2019-04-27T08:35:51.420Z,523.12
2019-04-27T08:36:51.384Z,444.38
2019-04-27T08:37:51.413Z,365.62
2019-04-27T08:38:51.374Z,416.25
2019-04-27T08:39:51.362Z,517.50
2019-04-27T08:40:51.352Z,691.88
2019-04-27T08:41:51.372Z,956.25
2019-04-27T08:42:51.454Z,4803.75
2019-04-27T08:43:51.304Z,4691.25
2019-04-27T08:44:51.303Z,1175.62
2019-04-27T08:45:51.306Z,3251.25
2019-04-27T08:46:51.323Z,3695.62
2019-04-27T08:47:51.262Z,3521.25
2019-04-27T08:48:51.254Z,3639.38
2019-04-27T08:49:51.244Z,3549.38
2019-04-27T08:50:51.238Z,1946.25
2019-04-27T08:51:59.265Z,781.88
2019-04-27T08:52:52.203Z,562.50
2019-04-27T08:53:51.197Z,1513.12
2019-04-27T08:54:51.205Z,388.12
2019-04-27T08:55:52.777Z,303.75
2019-04-27T08:56:51.204Z,326.25
2019-04-27T08:57:51.153Z,905.62
2019-04-27T08:58:51.144Z,2379.38
2019-04-27T08:59:51.192Z,320.62
2019-04-27T09:00:51.126Z,236.25
2019-04-27T09:01:51.155Z,202.50
2019-04-27T09:02:51.115Z,225.00
2019-04-27T09:03:51.093Z,275.62
2019-04-27T09:04:51.093Z,258.75
2019-04-27T09:05:51.066Z,275.62
2019-04-27T09:06:51.106Z,405.00
2019-04-27T09:07:51.058Z,489.38
2019-04-27T09:08:51.043Z,478.12
2019-04-27T09:09:51.024Z,900.00
2019-04-27T09:10:51.015Z,3690.00
2019-04-27T09:11:51.056Z,506.25
2019-04-27T09:12:53.547Z,286.88
2019-04-27T09:13:50.994Z,320.62
2019-04-27T09:14:51.026Z,1350.00
2019-04-27T09:15:50.959Z,2835.00
2019-04-27T09:16:59.532Z,3335.62
2019-04-27T09:17:51.951Z,506.25
2019-04-27T09:18:50.927Z,3498.75
2019-04-27T09:19:50.915Z,4685.62
2019-04-27T09:20:50.908Z,5096.25
2019-04-27T09:21:50.936Z,4663.12
2019-04-27T09:22:50.876Z,4230.00
2019-04-27T09:23:50.907Z,3358.12
2019-04-27T09:24:50.858Z,2784.38
2019-04-27T09:25:50.856Z,1164.38
2019-04-27T09:26:50.838Z,748.12
2019-04-27T09:27:50.827Z,489.38
2019-04-27T09:28:50.870Z,365.62
2019-04-27T09:29:50.800Z,466.88
2019-04-27T09:30:50.801Z,371.25
2019-04-27T09:31:50.823Z,298.12
2019-04-27T09:32:50.767Z,281.25
2019-04-27T09:33:50.779Z,275.62
2019-04-27T09:34:50.754Z,275.62
2019-04-27T09:35:50.747Z,253.12
2019-04-27T09:36:50.798Z,213.75
2019-04-27T09:37:50.719Z,196.88
2019-04-27T09:38:50.710Z,174.38
2019-04-27T09:39:50.698Z,168.75
2019-04-27T09:40:50.680Z,168.75
2019-04-27T09:41:50.710Z,163.12
2019-04-27T09:42:50.669Z,168.75
2019-04-27T09:43:50.653Z,168.75
2019-04-27T09:44:50.654Z,174.38
2019-04-27T09:45:50.630Z,157.50
2019-04-27T09:46:50.676Z,146.25
2019-04-27T09:47:50.645Z,146.25
2019-04-27T09:48:50.601Z,146.25
2019-04-27T09:49:50.590Z,140.62
2019-04-27T09:50:50.573Z,140.62
2019-04-27T09:51:50.606Z,140.62
2019-04-27T09:52:50.573Z,140.62
2019-04-27T09:53:50.587Z,135.00
2019-04-27T09:54:50.535Z,129.38
2019-04-27T09:55:50.515Z,123.75
2019-04-27T09:56:51.490Z,118.12
2019-04-27T09:57:50.491Z,118.12
2019-04-27T09:58:50.494Z,106.88
2019-04-27T09:59:50.526Z,95.62
2019-04-27T10:00:50.520Z,118.12
2019-04-27T10:01:50.492Z,135.00
2019-04-27T10:02:50.507Z,213.75
2019-04-27T10:03:50.455Z,258.75
2019-04-27T10:04:50.471Z,286.88
2019-04-27T10:05:50.430Z,247.50
2019-04-27T10:06:50.484Z,444.38
2019-04-27T10:07:50.437Z,455.62
2019-04-27T10:08:50.459Z,466.88
2019-04-27T10:09:50.427Z,455.62
2019-04-27T10:10:50.620Z,461.25
2019-04-27T10:11:50.389Z,309.38
2019-04-27T10:12:50.349Z,382.50
2019-04-27T10:13:50.327Z,298.12
2019-04-27T10:14:50.326Z,326.25
2019-04-27T10:15:50.313Z,348.75
2019-04-27T10:16:50.312Z,326.25
2019-04-27T10:17:50.272Z,365.62
2019-04-27T10:18:50.334Z,354.38
2019-04-27T10:19:50.273Z,331.88
2019-04-27T10:20:59.025Z,315.00
2019-04-27T10:21:51.234Z,331.88
2019-04-27T10:22:50.268Z,585.00
2019-04-27T10:23:50.242Z,579.38
2019-04-27T10:24:50.243Z,556.88
2019-04-27T10:25:50.183Z,540.00
2019-04-27T10:26:50.183Z,472.50
2019-04-27T10:27:50.248Z,444.38
2019-04-27T10:28:50.154Z,444.38
2019-04-27T10:29:50.164Z,450.00
2019-04-27T10:30:50.161Z,450.00
2019-04-27T10:31:50.137Z,444.38
2019-04-27T10:32:50.145Z,461.25
2019-04-27T10:33:50.106Z,438.75
2019-04-27T10:34:50.095Z,540.00
2019-04-27T10:35:50.145Z,511.88
2019-04-27T10:36:50.076Z,354.38
2019-04-27T10:37:50.074Z,376.88
2019-04-27T10:38:50.053Z,348.75
2019-04-27T10:39:50.045Z,455.62
2019-04-27T10:40:50.082Z,298.12
2019-04-27T10:41:50.040Z,253.12
2019-04-27T10:42:50.004Z,399.38
2019-04-27T10:43:49.986Z,219.38
2019-04-27T10:44:50.005Z,219.38
2019-04-27T10:45:50.035Z,225.00
2019-04-27T10:46:49.964Z,270.00
2019-04-27T10:47:49.959Z,298.12
2019-04-27T10:48:49.938Z,320.62
2019-04-27T10:49:49.957Z,382.50
2019-04-27T10:50:49.916Z,337.50
2019-04-27T10:51:49.950Z,416.25
2019-04-27T10:52:53.897Z,472.50
2019-04-27T10:53:49.898Z,455.62
2019-04-27T10:54:49.869Z,1665.00
2019-04-27T10:55:49.866Z,871.88
2019-04-27T10:56:49.883Z,1130.62
2019-04-27T10:57:49.847Z,2143.12
2019-04-27T10:58:49.828Z,939.38
2019-04-27T10:59:49.829Z,2435.62
2019-04-27T11:00:49.844Z,1243.12
2019-04-27T11:01:49.818Z,731.25
2019-04-27T11:02:49.803Z,472.50
2019-04-27T11:03:49.796Z,270.00
2019-04-27T11:04:49.757Z,236.25
2019-04-27T11:05:49.790Z,208.12
2019-04-27T11:06:49.760Z,168.75
2019-04-27T11:07:49.759Z,163.12
2019-04-27T11:08:49.755Z,146.25
2019-04-27T11:09:49.709Z,135.00
2019-04-27T11:10:49.740Z,129.38
2019-04-27T11:11:49.688Z,140.62
2019-04-27T11:12:49.692Z,185.62
2019-04-27T11:13:49.680Z,208.12
2019-04-27T11:14:49.679Z,253.12
2019-04-27T11:15:49.746Z,309.38
2019-04-27T11:16:49.628Z,320.62
2019-04-27T11:17:49.621Z,601.88
2019-04-27T11:18:49.619Z,354.38
2019-04-27T11:19:49.601Z,292.50
2019-04-27T11:20:49.640Z,247.50
2019-04-27T11:21:49.617Z,236.25
2019-04-27T11:22:49.569Z,208.12
2019-04-27T11:23:49.562Z,168.75
2019-04-27T11:24:49.552Z,140.62
2019-04-27T11:25:49.523Z,123.75
2019-04-27T11:26:49.560Z,112.50
2019-04-27T11:27:49.520Z,118.12
2019-04-27T11:28:49.500Z,140.62
2019-04-27T11:29:49.545Z,168.75
2019-04-27T11:30:49.481Z,219.38
2019-04-27T11:31:49.505Z,230.62
2019-04-27T11:32:49.450Z,348.75
2019-04-27T11:33:49.463Z,331.88
2019-04-27T11:34:49.478Z,343.12
2019-04-27T11:35:49.426Z,241.88
2019-04-27T11:36:49.413Z,326.25
2019-04-27T11:37:49.440Z,326.25
2019-04-27T11:38:49.392Z,315.00
2019-04-27T11:39:49.411Z,298.12
2019-04-27T11:40:49.369Z,315.00
2019-04-27T11:41:49.352Z,275.62
2019-04-27T11:42:49.342Z,236.25
2019-04-27T11:43:49.331Z,241.88
2019-04-27T11:44:49.376Z,264.38
2019-04-27T11:45:49.312Z,281.25
2019-04-27T11:46:49.302Z,320.62
2019-04-27T11:47:49.339Z,320.62
2019-04-27T11:48:49.290Z,303.75
2019-04-27T11:49:49.312Z,286.88
2019-04-27T11:50:49.252Z,309.38
2019-04-27T11:51:49.246Z,275.62
2019-04-27T11:52:49.242Z,230.62
2019-04-27T11:53:49.224Z,270.00
2019-04-27T11:54:49.243Z,303.75
2019-04-27T11:55:49.205Z,331.88
2019-04-27T11:56:49.197Z,354.38
2019-04-27T11:57:49.213Z,331.88
2019-04-27T11:58:49.181Z,326.25
2019-04-27T11:59:49.174Z,315.00
2019-04-27T12:00:49.176Z,320.62
2019-04-27T12:01:49.135Z,326.25
2019-04-27T12:02:49.149Z,315.00
2019-04-27T12:03:49.125Z,337.50
2019-04-27T12:04:49.158Z,326.25
2019-04-27T12:05:49.130Z,337.50
2019-04-27T12:06:49.091Z,315.00
2019-04-27T12:07:49.074Z,354.38
2019-04-27T12:08:49.116Z,371.25
2019-04-27T12:09:49.053Z,337.50
2019-04-27T12:10:49.037Z,292.50
2019-04-27T12:11:49.052Z,270.00
2019-04-27T12:12:49.022Z,258.75
2019-04-27T12:13:49.035Z,253.12
2019-04-27T12:14:48.995Z,247.50
2019-04-27T12:15:48.976Z,236.25
2019-04-27T12:16:48.975Z,213.75
2019-04-27T12:17:48.969Z,247.50
2019-04-27T12:18:49.274Z,225.00
2019-04-27T12:19:48.975Z,219.38
2019-04-27T12:20:48.948Z,230.62
2019-04-27T12:21:48.915Z,230.62
2019-04-27T12:22:48.922Z,253.12
2019-04-27T12:23:48.926Z,247.50
2019-04-27T12:24:48.885Z,264.38
2019-04-27T12:25:48.875Z,270.00
2019-04-27T12:26:48.895Z,264.38
2019-04-27T12:27:48.849Z,241.88
2019-04-27T12:28:48.847Z,225.00
2019-04-27T12:29:48.847Z,213.75
2019-04-27T12:30:48.847Z,219.38
2019-04-27T12:31:49.178Z,213.75
2019-04-27T12:32:48.786Z,208.12
2019-04-27T12:33:48.782Z,208.12
2019-04-27T12:34:48.777Z,191.25
2019-04-27T12:35:48.809Z,185.62
2019-04-27T12:36:48.775Z,180.00
2019-04-27T12:37:48.746Z,174.38
2019-04-27T12:38:48.729Z,174.38
2019-04-27T12:39:48.765Z,174.38
2019-04-27T12:40:48.709Z,180.00
2019-04-27T12:41:48.707Z,174.38
2019-04-27T12:42:48.687Z,174.38
2019-04-27T12:43:48.679Z,174.38
2019-04-27T12:44:48.707Z,168.75
2019-04-27T12:45:48.660Z,168.75
2019-04-27T12:46:48.650Z,163.12